Latest Weather Observations for Bankstown

IDN60801

Issued at 1:03 pm EST Friday 31 July 2015 (issued every 30 minutes, with the page automatically refreshed every 10 minutes)

About weather observations | Map of weather stations | Latest weather observations for NSW | Other Formats
Station Details ID: 066137 Name: BANKSTOWN AIRPORT AWS Lat: -33.92 Lon: 150.99 Height: 6.5 m
Data from the previous 72 hours. | See also: Recent months at Bankstown
Date/Time
EST
Temp
°C
App
Temp
°C
Dew
Point
Rel
Hum
%
Delta-T
°C
Wind Press
QNH
hPa
Press
MSL
hPa
Rain
since 9 am
mm
Dir
 
Spd
km/h
Gust
km/h
Spd
kts
Gust
kts
31/01:00pm 19.3 16.0 0.4 28 8.3 WSW 7 22 4 12 1020.0 1020.0 0.0
31/12:30pm 18.3 14.2 -0.5 28 8.1 WSW 11 17 6 9 1020.5 1020.5 0.0
31/12:00pm 18.0 13.4 -0.8 28 8.0 WNW 13 19 7 10 1021.0 1021.0 0.0
31/11:30am 17.9 13.4 -0.4 29 7.9 WNW 13 19 7 10 1021.3 1021.3 0.0
31/11:00am 17.6 13.8 1.6 34 7.1 W 11 15 6 8 1021.7 1021.7 0.0
31/10:30am 16.3 13.3 2.0 38 6.4 WSW 7 11 4 6 1021.9 1021.9 0.0
31/10:00am 16.0 12.4 2.8 41 5.9 WNW 11 19 6 10 1021.8 1021.8 0.0
31/09:30am 14.6 9.3 2.8 45 5.3 WNW 20 32 11 17 1021.4 1021.4 0.0
31/09:00am 13.3 8.5 4.5 55 4.0 WNW 19 26 10 14 1021.3 1021.3 0.0
31/08:30am 11.6 8.6 4.3 61 3.3 NW 9 13 5 7 1021.6 1021.6 0.0
31/08:00am 9.1 7.4 3.9 70 2.3 ESE 2 7 1 4 1021.5 1021.5 0.0
31/07:30am 8.4 6.6 3.5 71 2.1 W 2 7 1 4 1021.1 1021.1 0.0
31/07:00am 8.5 6.9 2.7 67 2.4 CALM 0 0 0 0 1021.1 1021.1 0.0
31/06:30am 8.2 4.9 2.2 66 2.5 W 9 11 5 6 1020.5 1020.5 0.0
31/06:00am 9.5 5.4 2.4 61 3.0 WNW 13 19 7 10 1019.6 1019.6 0.0
31/05:30am 9.5 4.4 3.0 64 2.8 WNW 19 20 10 11 1019.5 1019.5 0.0
31/05:00am 8.3 5.1 2.8 68 2.3 NW 9 13 5 7 1019.1 1019.1 0.0
31/04:30am 9.7 8.0 1.8 58 3.3 CALM 0 0 0 0 1019.0 1019.0 0.0
31/04:00am 11.0 8.1 1.5 52 4.0 NW 6 7 3 4 1018.9 1018.9 0.0
31/03:30am 11.5 8.0 1.2 49 4.3 NW 9 11 5 6 1018.8 1018.8 0.0
31/03:00am 11.7 7.5 1.6 50 4.3 NW 13 15 7 8 1018.7 1018.7 0.0
31/02:30am 10.7 6.8 1.3 52 3.9 NNW 11 13 6 7 1018.8 1018.8 0.0
31/02:00am 11.7 8.6 1.6 50 4.3 NW 7 9 4 5 1019.1 1019.1 0.0
31/01:30am 12.4 8.6 2.0 49 4.5 N 11 15 6 8 1018.9 1018.9 0.0
31/01:00am 12.7 9.3 1.7 47 4.7 NNW 9 11 5 6 1018.9 1018.9 0.0
31/12:30am 12.4 8.6 1.7 48 4.6 WNW 11 13 6 7 1019.2 1019.2 0.0
31/12:00am 12.5 9.5 2.1 49 4.5 W 7 9 4 5 1019.2 1019.2 0.0
 
Date/Time
EST
Temp
°C
App
Temp
°C
Dew
Point
Rel
Hum
%
Delta-T
°C
Wind Press
QNH
hPa
Press
MSL
hPa
Rain
since 9 am
mm
Dir
 
Spd
km/h
Gust
km/h
Spd
kts
Gust
kts
30/11:30pm 12.9 9.1 1.6 46 4.8 NW 11 15 6 8 1018.6 1018.6 0.0
30/11:00pm 12.7 8.1 1.4 46 4.8 NNW 15 17 8 9 1018.4 1018.4 0.0
30/10:30pm 13.2 8.5 1.2 44 5.1 NNW 15 22 8 12 1018.8 1018.8 0.0
30/10:00pm 13.0 9.1 1.4 45 4.9 NNW 11 17 6 9 1019.1 1019.1 0.0
30/09:30pm 13.7 9.0 0.7 41 5.5 NNW 15 20 8 11 1019.1 1019.1 0.0
30/09:00pm 13.6 9.2 0.6 41 5.5 N 13 22 7 12 1019.1 1019.1 0.0
30/08:30pm 13.4 8.9 2.0 46 5.0 NNW 15 17 8 9 1019.2 1019.2 0.0
30/08:00pm 14.2 9.7 2.1 44 5.3 N 15 20 8 11 1019.3 1019.3 0.0
30/07:30pm 13.9 10.6 2.2 45 5.1 NW 9 13 5 7 1019.5 1019.5 0.0
30/07:00pm 14.2 10.5 2.1 44 5.3 NW 11 13 6 7 1019.4 1019.4 0.0
30/06:30pm 14.8 11.7 1.3 40 5.8 NNW 7 11 4 6 1019.2 1019.2 0.0
30/06:00pm 15.8 12.3 1.2 37 6.4 NNW 9 13 5 7 1019.0 1019.0 0.0
30/05:30pm 16.8 11.3 0.9 34 7.0 NNW 19 26 10 14 1018.7 1018.7 0.0
30/05:00pm 17.2 11.7 0.4 32 7.3 NNW 19 24 10 13 1018.5 1018.5 0.0
30/04:30pm 17.9 12.8 0.6 31 7.6 NNW 17 22 9 12 1018.8 1018.8 0.0
30/04:00pm 18.6 13.0 0.2 29 8.0 NNW 19 24 10 13 1019.1 1019.1 0.0
30/03:30pm 19.0 13.8 0.1 28 8.3 NW 17 22 9 12 1019.4 1019.4 0.0
30/03:00pm 19.2 13.7 0.3 28 8.3 NNW 19 28 10 15 1019.7 1019.7 0.0
30/02:30pm 19.3 13.7 -0.1 27 8.5 NNW 19 28 10 15 1020.0 1020.0 0.0
30/02:00pm 19.4 14.6 -0.1 27 8.5 NW 15 19 8 10 1020.5 1020.5 0.0
30/01:30pm 18.7 14.5 1.7 32 7.7 WNW 13 17 7 9 1021.2 1021.2 0.0
30/01:00pm 18.4 14.1 1.0 31 7.7 NNW 13 20 7 11 1021.5 1021.5 0.0
30/12:30pm 17.6 12.9 0.7 32 7.4 NNW 15 20 8 11 1022.2 1022.2 0.0
30/12:00pm 17.3 12.9 2.5 37 6.7 NW 15 20 8 11 1022.8 1022.8 0.0
30/11:30am 15.8 12.3 3.3 43 5.7 WNW 11 19 6 10 1023.6 1023.6 0.0
30/11:00am 14.4 10.7 4.7 52 4.5 NW 13 17 7 9 1024.5 1024.5 0.0
30/10:30am 12.6 7.6 4.8 59 3.6 NNW 20 24 11 13 1025.3 1025.3 0.0
30/10:00am 11.6 8.5 5.7 67 2.7 NW 11 15 6 8 1026.1 1026.1 0.0
30/09:30am 10.4 6.9 5.4 71 2.3 WNW 13 17 7 9 1026.4 1026.4 0.0
30/09:00am 9.4 7.0 6.8 84 1.2 W 9 17 5 9 1026.5 1026.5 0.0
30/08:30am 7.7 5.5 6.0 89 0.8 WNW 7 11 4 6 1026.6 1026.6 0.0
30/08:00am 6.4 4.9 4.9 90 0.6 NW 2 7 1 4 1026.9 1026.9 0.0
30/07:30am 4.7 3.2 3.0 89 0.7 CALM 0 0 0 0 1026.8 1026.8 0.0
30/07:00am 4.5 2.2 2.8 89 0.7 N 4 6 2 3 1026.6 1026.6 0.0
30/06:32am 5.1 2.5 3.4 89 0.7 ENE 6 7 3 4 1026.5 1026.5 0.0
30/06:30am 5.1 2.5 3.4 89 0.7 ENE 6 7 3 4 1026.5 1026.5 0.0
30/06:15am 4.5 1.8 2.8 89 0.7 ENE 6 7 3 4 1026.6 1026.6 0.0
30/06:00am 4.2 2.6 2.6 89 0.6 CALM 0 0 0 0 1026.6 1026.6 0.0
30/05:49am 5.2 3.8 3.5 89 0.7 CALM 0 0 0 0 1026.5 1026.5 0.0
30/05:30am 4.4 2.8 2.6 88 0.7 CALM 0 0 0 0 1026.9 1026.9 0.0
30/05:00am 4.6 3.1 2.8 88 0.7 CALM 0 0 0 0 1026.9 1026.9 0.0
30/04:52am 4.2 2.6 2.2 87 0.8 CALM 0 0 0 0 1026.9 1026.9 0.0
30/04:30am 5.3 3.9 3.5 88 0.7 CALM 0 0 0 0 1026.9 1026.9 0.0
30/04:00am 6.1 4.8 4.3 88 0.8 CALM 0 0 0 0 1027.3 1027.3 0.0
30/03:37am 5.9 4.6 4.1 88 0.8 CALM 0 0 0 0 1027.4 1027.4 0.0
30/03:30am 6.0 4.7 4.0 87 0.8 CALM 0 0 0 0 1027.5 1027.5 0.0
30/03:26am 5.8 4.4 3.8 87 0.8 CALM 0 0 0 0 1027.5 1027.5 0.0
30/03:00am 6.1 4.8 4.1 87 0.8 CALM 0 0 0 0 1027.5 1027.5 0.0
30/02:30am 6.7 5.5 4.7 87 0.9 CALM 0 0 0 0 1027.6 1027.6 0.0
30/02:00am 7.3 6.2 5.3 87 0.9 CALM 0 0 0 0 1027.9 1027.9 0.0
30/01:30am 6.9 5.8 4.9 87 0.9 CALM 0 0 0 0 1028.5 1028.5 0.0
30/01:00am 7.1 6.0 5.1 87 0.9 CALM 0 0 0 0 1028.9 1028.9 0.0
30/12:30am 7.1 6.0 5.1 87 0.9 CALM 0 0 0 0 1029.1 1029.1 0.0
30/12:00am 7.2 6.1 5.0 86 1.0 CALM 0 0 0 0 1029.3 1029.3 0.0
 
Date/Time
EST
Temp
°C
App
Temp
°C
Dew
Point
Rel
Hum
%
Delta-T
°C
Wind Press
QNH
hPa
Press
MSL
hPa
Rain
since 9 am
mm
Dir
 
Spd
km/h
Gust
km/h
Spd
kts
Gust
kts
29/11:30pm 7.5 6.4 5.1 85 1.1 CALM 0 0 0 0 1029.6 1029.6 0.0
29/11:00pm 7.3 6.2 4.9 85 1.0 CALM 0 4 0 2 1030.2 1030.2 0.0
29/10:30pm 7.0 5.8 4.7 85 1.0 CALM 0 0 0 0 1030.8 1030.8 0.0
29/10:00pm 8.1 7.2 5.9 86 1.0 CALM 0 2 0 1 1030.7 1030.7 0.0
29/09:30pm 8.0 7.0 5.6 85 1.1 CALM 0 0 0 0 1030.6 1030.6 0.0
29/09:00pm 8.2 7.2 5.8 85 1.1 CALM 0 0 0 0 1030.5 1030.5 0.0
29/08:30pm 8.1 7.0 5.2 82 1.3 CALM 0 0 0 0 1030.3 1030.3 0.0
29/08:00pm 8.5 7.3 4.7 77 1.7 CALM 0 0 0 0 1030.4 1030.4 0.0
29/07:30pm 9.7 8.6 4.9 72 2.2 CALM 0 0 0 0 1030.5 1030.5 0.0
29/07:00pm 11.6 10.8 6.3 70 2.5 CALM 0 0 0 0 1030.6 1030.6 0.0
29/06:30pm 12.9 11.6 6.0 63 3.3 ENE 2 6 1 3 1030.5 1030.5 0.0
29/06:00pm 13.8 11.4 5.2 56 4.0 ENE 7 9 4 5 1030.1 1030.1 0.0
29/05:30pm 14.3 11.6 5.4 55 4.2 E 9 13 5 7 1029.8 1029.8 0.0
29/05:00pm 14.9 11.7 4.9 51 4.6 E 11 15 6 8 1029.7 1029.7 0.0
29/04:30pm 15.5 11.4 4.5 48 5.1 ESE 15 17 8 9 1029.5 1029.5 0.0
29/04:00pm 17.3 14.2 1.3 34 7.0 NW 7 13 4 7 1029.6 1029.6 0.0
29/03:30pm 17.0 13.1 1.0 34 7.0 N 11 15 6 8 1029.7 1029.7 0.0
29/03:00pm 17.0 13.5 1.0 34 7.0 NE 9 11 5 6 1030.0 1030.0 0.0
29/02:30pm 17.5 14.8 2.7 37 6.8 WNW 6 13 3 7 1030.4 1030.4 0.0
29/02:00pm 17.3 13.9 1.7 35 6.9 SW 9 13 5 7 1030.8 1030.8 0.0
29/01:30pm 17.0 14.1 1.4 35 6.9 NNW 6 11 3 6 1031.1 1031.1 0.0
29/01:00pm 17.2 14.5 2.8 38 6.5 SW 6 15 3 8 1031.6 1031.6 0.0
29/12:30pm 16.4 13.5 1.3 36 6.6 E 6 7 3 4 1032.2 1032.2 0.0
29/12:00pm 16.3 14.5 3.7 43 5.8 S 2 7 1 4 1033.0 1033.0 0.0
29/11:30am 15.2 12.5 3.7 46 5.3 W 7 13 4 7 1033.6 1033.6 0.0
29/11:00am 14.6 11.5 3.7 48 4.9 WNW 9 13 5 7 1034.1 1034.1 0.0
29/10:30am 13.4 9.9 3.5 51 4.4 W 11 15 6 8 1034.7 1034.7 0.0
29/10:00am 12.1 9.1 3.9 57 3.6 WNW 9 13 5 7 1034.9 1034.9 0.0
29/09:30am 11.2 8.2 4.2 62 3.1 WNW 9 15 5 8 1035.2 1035.2 0.0
29/09:00am 9.7 6.2 3.4 65 2.7 WNW 11 15 6 8 1035.4 1035.4 0.0
29/08:30am 8.5 5.4 3.6 71 2.1 WNW 9 13 5 7 1035.3 1035.3 0.0
29/08:00am 7.1 4.4 3.9 80 1.4 NW 7 9 4 5 1035.2 1035.2 0.0
29/07:30am 5.9 2.6 2.7 80 1.3 NNW 9 11 5 6 1034.8 1034.8 0.0
29/07:00am 5.9 2.6 2.5 79 1.4 NNW 9 9 5 5 1034.5 1034.5 0.0
29/06:30am 6.1 2.5 2.9 80 1.3 NNW 11 13 6 7 1034.2 1034.2 0.0
29/06:00am 5.9 2.6 2.5 79 1.4 NNW 9 9 5 5 1033.9 1033.9 0.0
29/05:30am 6.3 3.6 2.9 79 1.4 NNW 6 7 3 4 1033.7 1033.7 0.0
29/05:00am 6.5 3.7 3.1 79 1.4 NNW 7 9 4 5 1033.6 1033.6 0.0
29/04:30am 6.4 3.6 3.2 80 1.3 NW 7 9 4 5 1033.4 1033.4 0.0
29/04:00am 6.3 3.1 3.1 80 1.3 NW 9 13 5 7 1033.4 1033.4 0.0
29/03:30am 6.5 3.9 3.3 80 1.3 NW 6 7 3 4 1033.3 1033.3 0.0
29/03:00am 6.1 3.3 3.1 81 1.2 NW 7 9 4 5 1033.4 1033.4 0.0
29/02:30am 6.5 4.7 3.7 82 1.2 NW 2 6 1 3 1033.5 1033.5 0.0
29/02:00am 6.0 4.5 3.2 82 1.2 CALM 0 6 0 3 1033.6 1033.6 0.0
29/01:30am 5.8 4.3 3.0 82 1.2 CALM 0 0 0 0 1033.4 1033.4 0.0
29/01:00am 6.2 4.7 3.0 80 1.3 CALM 0 0 0 0 1033.4 1033.4 0.0
29/12:30am 6.7 5.4 3.9 82 1.2 CALM 0 6 0 3 1033.5 1033.5 0.0
29/12:00am 6.2 4.7 3.2 81 1.2 CALM 0 0 0 0 1033.5 1033.5 0.0
 
Date/Time
EST
Temp
°C
App
Temp
°C
Dew
Point
Rel
Hum
%
Delta-T
°C
Wind Press
QNH
hPa
Press
MSL
hPa
Rain
since 9 am
mm
Dir
 
Spd
km/h
Gust
km/h
Spd
kts
Gust
kts
28/11:30pm 6.5 4.2 2.8 77 1.5 WNW 4 6 2 3 1033.4 1033.4 0.0
28/11:00pm 7.1 5.3 3.3 77 1.6 WNW 2 6 1 3 1033.5 1033.5 0.0
28/10:30pm 7.7 6.1 4.3 79 1.5 WNW 2 7 1 4 1033.5 1033.5 0.0
28/10:00pm 6.3 4.1 3.5 82 1.2 SE 4 9 2 5 1033.4 1033.4 0.0
28/09:30pm 6.2 4.7 3.2 81 1.3 CALM 0 0 0 0 1033.2 1033.2 0.0
28/09:00pm 6.6 5.1 2.9 77 1.5 CALM 0 4 0 2 1033.1 1033.1 0.0
28/08:30pm 7.8 5.3 4.0 77 1.6 ESE 6 7 3 4 1033.0 1033.0 0.0
28/08:00pm 8.3 6.9 3.8 73 1.9 CALM 0 0 0 0 1032.7 1032.7 0.0
28/07:30pm 8.4 7.0 3.5 71 2.1 CALM 0 0 0 0 1033.0 1033.0 0.0
28/07:00pm 8.7 6.3 2.3 64 2.6 ESE 4 9 2 5 1032.6 1032.6 0.0
28/06:30pm 10.1 8.5 2.5 59 3.2 CALM 0 0 0 0 1032.2 1032.2 0.0
28/06:00pm 12.1 9.2 2.8 53 4.0 SE 7 9 4 5 1031.8 1031.8 0.0
28/05:30pm 12.7 9.0 2.6 50 4.4 SE 11 13 6 7 1031.4 1031.4 0.0
28/05:00pm 13.9 9.4 1.9 44 5.2 SSE 15 20 8 11 1031.3 1031.3 0.0
28/04:30pm 15.1 10.5 1.3 39 6.0 SE 15 19 8 10 1031.0 1031.0 0.0
28/04:00pm 15.8 10.7 0.8 36 6.4 SE 17 20 9 11 1031.0 1031.0 0.0
28/03:30pm 16.0 10.3 0.6 35 6.6 ESE 20 26 11 14 1030.7 1030.7 0.0
28/03:00pm 15.8 10.3 0.4 35 6.5 SE 19 24 10 13 1030.8 1030.8 0.0
28/02:30pm 15.9 9.7 -0.3 33 6.9 SSE 22 30 12 16 1030.7 1030.7 0.0
28/02:00pm 16.3 11.4 -0.8 31 7.1 SSE 15 20 8 11 1030.6 1030.6 0.0
28/01:30pm 16.4 11.8 -0.8 31 7.2 SSW 13 24 7 13 1030.6 1030.6 0.0

Other Formats:

Comma delimited format used in spreadsheet applications
http://www.bom.gov.au/fwo/IDN60801/IDN60801.94765.axf

JavaScript Object Notation format (JSON) in row-major order
http://www.bom.gov.au/fwo/IDN60801/IDN60801.94765.json